createdAt,value
2018-06-11T00:01:25.938Z,91905.59
2018-06-11T00:04:00.529Z,91911.19
2018-06-11T00:06:34.535Z,91912.01
2018-06-11T00:09:09.972Z,91914.55
2018-06-11T00:11:45.022Z,91912.12
2018-06-11T00:14:20.048Z,91911.64
2018-06-11T00:16:54.990Z,91915.11
2018-06-11T00:19:30.417Z,91913.83
2018-06-11T00:22:05.153Z,91911.06
2018-06-11T00:24:39.358Z,91915.31
2018-06-11T00:27:13.531Z,91913.01
2018-06-11T00:29:47.633Z,91912.45
2018-06-11T00:32:22.887Z,91917.72
2018-06-11T00:34:57.080Z,91911.46
2018-06-11T00:37:32.105Z,91910.95
2018-06-11T00:40:06.568Z,91909.45
2018-06-11T00:42:41.946Z,91905.13
2018-06-11T00:45:17.187Z,91908.56
2018-06-11T00:47:51.359Z,91908.95
2018-06-11T00:50:25.848Z,91922.77
2018-06-11T00:53:00.341Z,91911.94
2018-06-11T00:55:45.298Z,91914.05
2018-06-11T00:58:19.915Z,91906.31
2018-06-11T01:00:54.982Z,91912.41
2018-06-11T01:03:29.084Z,91908.30
2018-06-11T01:06:03.911Z,91900.33
2018-06-11T01:08:38.661Z,91898.45
2018-06-11T01:11:13.989Z,91899.79
2018-06-11T01:13:48.372Z,91899.63
2018-06-11T01:16:24.256Z,91897.02
2018-06-11T01:18:58.385Z,91902.75
2018-06-11T01:21:32.909Z,91898.84
2018-06-11T01:24:07.077Z,91909.02
2018-06-11T01:26:41.440Z,91904.30
2018-06-11T01:29:15.990Z,91905.00
2018-06-11T01:31:50.285Z,91899.14
2018-06-11T01:34:24.652Z,91895.11
2018-06-11T01:36:59.652Z,91889.48
2018-06-11T01:39:34.882Z,91896.12
2018-06-11T01:42:09.801Z,91898.17
2018-06-11T01:44:44.103Z,91895.27
2018-06-11T01:47:18.544Z,91891.41
2018-06-11T01:49:53.296Z,91893.71
2018-06-11T01:52:27.929Z,91886.50
2018-06-11T01:55:02.114Z,91894.91
2018-06-11T01:57:36.436Z,91892.69
2018-06-11T02:00:10.984Z,91889.64
2018-06-11T02:02:45.226Z,91893.68
2018-06-11T02:05:19.796Z,91892.20
2018-06-11T02:07:54.050Z,91894.94
2018-06-11T02:10:28.515Z,91895.39
2018-06-11T02:13:03.290Z,91891.41
2018-06-11T02:15:37.462Z,91888.95
2018-06-11T02:18:12.413Z,91889.02
2018-06-11T02:20:47.633Z,91893.20
2018-06-11T02:23:21.964Z,91893.42
2018-06-11T02:25:56.693Z,91891.56
2018-06-11T02:28:30.928Z,91887.23
2018-06-11T02:31:05.403Z,91889.51
2018-06-11T02:33:40.419Z,91892.30
2018-06-11T02:36:14.596Z,91885.48
2018-06-11T02:38:49.617Z,91882.84
2018-06-11T02:41:23.862Z,91889.36
2018-06-11T02:43:58.093Z,91883.98
2018-06-11T02:46:32.549Z,91887.32
2018-06-11T02:49:06.892Z,91892.63
2018-06-11T02:51:42.188Z,91897.65
2018-06-11T02:54:23.101Z,91897.14
2018-06-11T02:56:57.422Z,91905.30
2018-06-11T02:59:31.737Z,91903.42
2018-06-11T03:02:11.420Z,91911.21
2018-06-11T03:04:46.848Z,91913.98
2018-06-11T03:07:21.460Z,91916.45
2018-06-11T03:09:56.308Z,91919.88
2018-06-11T03:12:30.425Z,91923.94
2018-06-11T03:15:04.583Z,91920.45
2018-06-11T03:17:38.716Z,91926.17
2018-06-11T03:20:14.104Z,91917.42
2018-06-11T03:22:48.284Z,91913.49
2018-06-11T03:25:22.568Z,91916.47
2018-06-11T03:27:56.724Z,91912.14
2018-06-11T03:30:31.592Z,91916.58
2018-06-11T03:33:05.715Z,91911.61
2018-06-11T03:35:40.293Z,91919.22
2018-06-11T03:38:14.609Z,91919.75
2018-06-11T03:40:48.700Z,91913.17
2018-06-11T03:43:22.776Z,91916.59
2018-06-11T03:45:57.591Z,91918.59
2018-06-11T03:48:31.669Z,91918.02
2018-06-11T03:51:06.057Z,91915.13
2018-06-11T03:53:40.379Z,91918.36
2018-06-11T03:56:14.809Z,91920.13
2018-06-11T03:58:48.827Z,91923.77
2018-06-11T04:01:23.445Z,91925.12
2018-06-11T04:03:57.450Z,91925.59
2018-06-11T04:06:33.315Z,91925.53
2018-06-11T04:09:08.287Z,91928.91
2018-06-11T04:11:42.565Z,91920.44
2018-06-11T04:14:17.341Z,91919.97
2018-06-11T04:16:52.007Z,91921.60
2018-06-11T04:19:26.617Z,91923.89
2018-06-11T04:22:01.112Z,91925.19
2018-06-11T04:24:36.521Z,91922.80
2018-06-11T04:27:11.817Z,91929.39
2018-06-11T04:29:45.923Z,91928.98
2018-06-11T04:32:21.612Z,91933.68
2018-06-11T04:34:56.790Z,91936.08
2018-06-11T04:37:31.070Z,91936.14
2018-06-11T04:40:05.636Z,91931.94
2018-06-11T04:42:40.824Z,91934.77
2018-06-11T04:45:15.245Z,91925.43
2018-06-11T04:47:50.097Z,91927.17
2018-06-11T04:50:24.362Z,91930.61
2018-06-11T04:52:58.942Z,91929.48
2018-06-11T04:55:35.945Z,91929.54
2018-06-11T04:58:12.504Z,91934.31
2018-06-11T05:00:47.108Z,91935.19
2018-06-11T05:03:21.308Z,91939.98
2018-06-11T05:05:55.651Z,91942.42
2018-06-11T05:08:30.366Z,91948.38
2018-06-11T05:11:04.480Z,91940.91
2018-06-11T05:13:40.717Z,91941.72
2018-06-11T05:16:15.788Z,91944.06
2018-06-11T05:18:51.656Z,91951.36
2018-06-11T05:21:26.131Z,91952.67
2018-06-11T05:24:00.839Z,91947.52
2018-06-11T05:26:36.910Z,91953.47
2018-06-11T05:29:12.535Z,91952.44
2018-06-11T05:31:47.265Z,91952.70
2018-06-11T05:34:21.477Z,91944.08
2018-06-11T05:36:56.907Z,91947.22
2018-06-11T05:39:32.930Z,91947.02
2018-06-11T05:42:07.117Z,91950.97
2018-06-11T05:44:41.727Z,91952.00
2018-06-11T05:47:15.938Z,91952.05
2018-06-11T05:49:50.149Z,91957.30
2018-06-11T05:52:25.362Z,91959.97
2018-06-11T05:54:59.984Z,91958.34
2018-06-11T05:57:34.226Z,91956.72
2018-06-11T06:00:09.360Z,91948.52
2018-06-11T06:02:43.443Z,91948.47
2018-06-11T06:05:19.237Z,91953.20
2018-06-11T06:07:53.822Z,91949.76
2018-06-11T06:10:28.597Z,91952.27
2018-06-11T06:13:03.224Z,91949.42
2018-06-11T06:15:37.376Z,91957.34
2018-06-11T06:18:11.428Z,91948.75
2018-06-11T06:20:45.683Z,91950.67
2018-06-11T06:23:19.750Z,91947.74
2018-06-11T06:25:55.064Z,91951.90
2018-06-11T06:28:29.182Z,91948.61
2018-06-11T06:31:03.950Z,91948.60
2018-06-11T06:33:38.482Z,91948.48
2018-06-11T06:36:14.161Z,91949.46
2018-06-11T06:38:48.529Z,91944.30
2018-06-11T06:41:22.822Z,91949.98
2018-06-11T06:43:57.222Z,91943.66
2018-06-11T06:46:32.349Z,91946.49
2018-06-11T06:49:06.503Z,91941.72
2018-06-11T06:51:42.742Z,91934.62
2018-06-11T06:54:18.103Z,91933.28
2018-06-11T06:56:52.231Z,91929.52
2018-06-11T06:59:26.808Z,91929.20
2018-06-11T07:02:01.095Z,91919.33
2018-06-11T07:04:35.513Z,91921.52
2018-06-11T07:07:09.896Z,91908.63
2018-06-11T07:09:43.991Z,91911.94
2018-06-11T07:12:18.552Z,91912.02
2018-06-11T07:14:53.809Z,91912.10
2018-06-11T07:17:28.108Z,91909.61
2018-06-11T07:20:02.441Z,91914.14
2018-06-11T07:22:37.167Z,91906.65
2018-06-11T07:25:11.531Z,91907.92
2018-06-11T07:27:46.298Z,91908.04
2018-06-11T07:30:20.422Z,91901.83
2018-06-11T07:32:55.702Z,91904.42
2018-06-11T07:35:31.160Z,91898.86
2018-06-11T07:38:05.481Z,91900.46
2018-06-11T07:40:39.857Z,91898.41
2018-06-11T07:43:14.051Z,91896.16
2018-06-11T07:45:48.528Z,91885.88
2018-06-11T07:48:22.904Z,91885.84
2018-06-11T07:50:56.965Z,91883.20
2018-06-11T07:53:32.043Z,91891.80
2018-06-11T07:56:07.007Z,91882.28
2018-06-11T07:58:41.315Z,91883.16
2018-06-11T08:01:16.429Z,91874.70
2018-06-11T08:03:51.879Z,91879.23
2018-06-11T08:06:26.554Z,91877.31
2018-06-11T08:09:00.746Z,91878.88
2018-06-11T08:11:34.938Z,91884.61
2018-06-11T08:14:09.033Z,91886.09
2018-06-11T08:16:43.182Z,91888.97
2018-06-11T08:19:17.297Z,91887.52
2018-06-11T08:21:51.546Z,91887.97
2018-06-11T08:24:25.867Z,91889.67
2018-06-11T08:27:00.222Z,91890.97
2018-06-11T08:29:35.484Z,91885.95
2018-06-11T08:32:10.618Z,91880.41
2018-06-11T08:34:44.904Z,91878.09
2018-06-11T08:37:19.020Z,91884.55
2018-06-11T08:39:55.095Z,91884.20
2018-06-11T08:42:30.113Z,91888.33
2018-06-11T08:45:04.373Z,91887.03
2018-06-11T08:47:38.910Z,91894.22
2018-06-11T08:50:13.666Z,91886.78
2018-06-11T08:52:48.091Z,91887.35
2018-06-11T08:55:22.415Z,91891.75
2018-06-11T08:57:56.554Z,91890.38
2018-06-11T09:00:30.791Z,91883.67
2018-06-11T09:03:04.869Z,91885.53
2018-06-11T09:05:39.132Z,91883.78
2018-06-11T09:08:13.489Z,91886.34
2018-06-11T09:10:47.832Z,91881.70
2018-06-11T09:13:22.148Z,91882.26
2018-06-11T09:15:56.370Z,91879.88
2018-06-11T09:18:31.182Z,91883.20
2018-06-11T09:21:06.346Z,91874.55
2018-06-11T09:23:40.433Z,91871.27
2018-06-11T09:26:14.638Z,91869.81
2018-06-11T09:28:48.686Z,91873.14
2018-06-11T09:31:23.014Z,91869.63
2018-06-11T09:34:01.078Z,91865.61
2018-06-11T09:36:36.201Z,91858.07
2018-06-11T09:39:10.461Z,91857.47
2018-06-11T09:41:44.572Z,91858.14
2018-06-11T09:44:18.789Z,91852.52
2018-06-11T09:46:54.187Z,91856.63
2018-06-11T09:49:28.325Z,91861.61
2018-06-11T09:52:02.541Z,91854.63
2018-06-11T09:54:36.993Z,91848.39
2018-06-11T09:57:11.213Z,91851.84
2018-06-11T09:59:45.416Z,91851.90
2018-06-11T10:02:19.800Z,91847.63
2018-06-11T10:04:54.082Z,91848.88
2018-06-11T10:07:28.434Z,91844.66
2018-06-11T10:10:03.563Z,91845.80
2018-06-11T10:12:38.246Z,91839.61
2018-06-11T10:15:12.519Z,91836.20
2018-06-11T10:17:46.857Z,91836.63
2018-06-11T10:20:20.948Z,91826.81
2018-06-11T10:22:55.184Z,91824.66
2018-06-11T10:25:29.445Z,91832.15
2018-06-11T10:28:03.642Z,91823.70
2018-06-11T10:30:38.001Z,91820.66
2018-06-11T10:33:12.426Z,91820.48
2018-06-11T10:35:48.389Z,91820.39
2018-06-11T10:38:22.619Z,91822.23
2018-06-11T10:40:56.862Z,91815.81
2018-06-11T10:43:31.083Z,91817.21
2018-06-11T10:46:05.246Z,91814.49
2018-06-11T10:48:40.431Z,91813.31
2018-06-11T10:51:14.462Z,91810.80
2018-06-11T10:53:49.059Z,91814.67
2018-06-11T10:56:23.432Z,91805.66
2018-06-11T10:59:05.865Z,91807.21
2018-06-11T11:01:40.476Z,91810.35
2018-06-11T11:04:15.041Z,91812.45
2018-06-11T11:06:49.312Z,91804.13
2018-06-11T11:09:28.359Z,91797.98
2018-06-11T11:12:04.023Z,91798.80
2018-06-11T11:14:38.521Z,91802.02
2018-06-11T11:17:12.849Z,91784.63
2018-06-11T11:19:48.185Z,91792.17
2018-06-11T11:22:22.364Z,91784.73
2018-06-11T11:24:56.543Z,91786.24
2018-06-11T11:27:30.752Z,91787.53
2018-06-11T11:30:05.449Z,91784.87
2018-06-11T11:32:41.414Z,91786.13
2018-06-11T11:35:15.619Z,91787.16
2018-06-11T11:37:49.794Z,91779.31
2018-06-11T11:40:23.998Z,91784.19
2018-06-11T11:43:22.225Z,91786.88
2018-06-11T11:46:03.315Z,91784.98
2018-06-11T11:48:47.699Z,91785.52
2018-06-11T11:51:22.066Z,91781.16
2018-06-11T11:53:56.678Z,91780.64
2018-06-11T11:56:31.085Z,91787.31
2018-06-11T11:59:05.196Z,91771.05
2018-06-11T12:01:39.490Z,91773.53
2018-06-11T12:04:13.660Z,91764.30
2018-06-11T12:06:47.938Z,91770.59
2018-06-11T12:09:22.148Z,91767.84
2018-06-11T12:11:59.518Z,91765.81
2018-06-11T12:14:33.746Z,91763.23
2018-06-11T12:17:07.843Z,91764.32
2018-06-11T12:19:42.078Z,91766.55
2018-06-11T12:22:16.424Z,91768.00
2018-06-11T12:24:50.650Z,91773.56
2018-06-11T12:27:19.639Z,91774.44
2018-06-11T12:29:47.750Z,91781.38
2018-06-11T12:32:16.776Z,91782.45
2018-06-11T12:34:48.741Z,91784.62
2018-06-11T12:37:17.496Z,91786.09
2018-06-11T12:39:45.622Z,91784.00
2018-06-11T12:42:13.809Z,91775.71
2018-06-11T12:44:42.912Z,91790.88
2018-06-11T12:47:10.947Z,91790.91
2018-06-11T12:49:42.438Z,91803.14
2018-06-11T12:52:11.107Z,91806.34
2018-06-11T12:54:39.433Z,91826.97
2018-06-11T12:57:07.566Z,91826.30
2018-06-11T12:59:35.690Z,91827.12
2018-06-11T13:02:05.114Z,91827.27
2018-06-11T13:04:33.371Z,91861.24
2018-06-11T13:07:02.376Z,91902.81
2018-06-11T13:09:31.519Z,91912.89
2018-06-11T13:11:59.807Z,91920.78
2018-06-11T13:14:27.930Z,91923.63
2018-06-11T13:16:57.077Z,91920.39
2018-06-11T13:19:25.255Z,91918.88
2018-06-11T13:21:53.384Z,91921.35
2018-06-11T13:24:21.549Z,91912.78
2018-06-11T13:26:50.393Z,91920.83
2018-06-11T13:29:18.516Z,91925.64
2018-06-11T13:31:46.912Z,91936.98
2018-06-11T13:34:15.099Z,91935.52
2018-06-11T13:36:43.317Z,91933.16
2018-06-11T13:39:12.377Z,91932.77
2018-06-11T13:41:40.507Z,91929.21
2018-06-11T13:44:13.842Z,91927.63
2018-06-11T13:46:42.659Z,91912.83
2018-06-11T13:49:13.645Z,91902.93
2018-06-11T13:51:42.068Z,91901.09
2018-06-11T13:54:11.029Z,91909.20
2018-06-11T13:56:40.603Z,91900.25
2018-06-11T13:59:09.212Z,91900.64
2018-06-11T14:01:38.522Z,91901.30
2018-06-11T14:04:16.104Z,91900.98
2018-06-11T14:06:44.321Z,91899.94
2018-06-11T14:09:13.325Z,91893.42
2018-06-11T14:11:44.558Z,91888.85
2018-06-11T14:14:13.092Z,91877.50
2018-06-11T14:16:41.208Z,91868.13
2018-06-11T14:19:10.003Z,91868.06
2018-06-11T14:21:39.356Z,91866.84
2018-06-11T14:24:09.307Z,91863.63
2018-06-11T14:26:37.488Z,91869.44
2018-06-11T14:29:06.652Z,91870.63
2018-06-11T14:31:36.980Z,91871.40
2018-06-11T14:34:05.547Z,91879.66
2018-06-11T14:36:34.225Z,91874.16
2018-06-11T14:39:02.552Z,91875.31
2018-06-11T14:41:30.718Z,91883.50
2018-06-11T14:43:59.995Z,91865.12
2018-06-11T14:46:28.101Z,91871.77
2018-06-11T14:48:57.041Z,91856.76
2018-06-11T14:51:26.125Z,91856.62
2018-06-11T14:53:57.167Z,91865.30
2018-06-11T14:56:25.493Z,91865.51
2018-06-11T14:58:53.598Z,91859.20
2018-06-11T15:01:22.126Z,91851.75
2018-06-11T15:03:52.086Z,91851.99
2018-06-11T15:06:20.328Z,91852.59
2018-06-11T15:08:49.074Z,91851.86
2018-06-11T15:11:18.907Z,91856.99
2018-06-11T15:13:47.113Z,91858.56
2018-06-11T15:16:15.819Z,91850.90
2018-06-11T15:18:43.968Z,91849.59
2018-06-11T15:21:12.504Z,91848.27
2018-06-11T15:23:40.847Z,91833.80
2018-06-11T15:26:08.929Z,91838.73
2018-06-11T15:28:37.299Z,91833.85
2018-06-11T15:31:06.382Z,91832.03
2018-06-11T15:33:34.471Z,91824.48
2018-06-11T15:36:04.727Z,91825.68
2018-06-11T15:38:33.111Z,91824.95
2018-06-11T15:41:01.231Z,91825.38
2018-06-11T15:43:29.389Z,91833.91
2018-06-11T15:45:57.467Z,91829.59
2018-06-11T15:48:25.558Z,91823.30
2018-06-11T15:50:53.972Z,91830.96
2018-06-11T15:53:22.348Z,91833.83
2018-06-11T15:55:51.329Z,91837.87
2018-06-11T15:58:19.542Z,91830.15
2018-06-11T16:00:48.911Z,91824.58
2018-06-11T16:03:17.937Z,91823.75
2018-06-11T16:05:46.245Z,91821.30
2018-06-11T16:08:14.342Z,91825.36
2018-06-11T16:10:44.244Z,91833.20
2018-06-11T16:13:12.542Z,91831.20
2018-06-11T16:15:40.943Z,91826.14
2018-06-11T16:18:10.260Z,91823.13
2018-06-11T16:20:38.586Z,91822.98
2018-06-11T16:23:06.725Z,91823.30
2018-06-11T16:25:35.039Z,91823.67
2018-06-11T16:28:04.790Z,91826.77
2018-06-11T16:30:33.579Z,91824.05
2018-06-11T16:33:02.004Z,91822.58
2018-06-11T16:35:33.186Z,91822.19
2018-06-11T16:38:01.478Z,91818.99
2018-06-11T16:40:29.624Z,91812.66
2018-06-11T16:42:58.858Z,91810.45
2018-06-11T16:45:26.948Z,91811.48
2018-06-11T16:47:55.428Z,91812.41
2018-06-11T16:50:23.642Z,91811.05
2018-06-11T16:52:52.638Z,91812.04
2018-06-11T16:55:20.770Z,91814.98
2018-06-11T16:57:51.341Z,91812.05
2018-06-11T17:00:20.127Z,91817.42
2018-06-11T17:02:49.275Z,91815.14
2018-06-11T17:05:19.551Z,91815.33
2018-06-11T17:07:48.791Z,91809.89
2018-06-11T17:10:17.844Z,91813.65
2018-06-11T17:12:46.818Z,91809.58
2018-06-11T17:15:15.731Z,91813.94
2018-06-11T17:17:44.896Z,91811.95
2018-06-11T17:20:13.414Z,91813.61
2018-06-11T17:22:41.662Z,91819.83
2018-06-11T17:25:11.204Z,91816.44
2018-06-11T17:27:40.096Z,91818.11
2018-06-11T17:30:08.270Z,91819.16
2018-06-11T17:32:37.637Z,91827.58
2018-06-11T17:35:06.132Z,91829.09
2018-06-11T17:37:34.241Z,91829.34
2018-06-11T17:40:02.525Z,91831.23
2018-06-11T17:42:30.736Z,91828.23
2018-06-11T17:44:58.884Z,91832.64
2018-06-11T17:47:27.719Z,91835.07
2018-06-11T17:49:56.721Z,91830.56
2018-06-11T17:52:25.696Z,91831.73
2018-06-11T17:54:54.997Z,91836.92
2018-06-11T17:57:23.433Z,91838.73
2018-06-11T17:59:51.556Z,91847.57
2018-06-11T18:02:20.696Z,91847.59
2018-06-11T18:04:48.885Z,91846.44
2018-06-11T18:07:17.814Z,91847.67
2018-06-11T18:09:46.160Z,91848.75
2018-06-11T18:12:14.972Z,91851.31
2018-06-11T18:14:43.749Z,91851.68
2018-06-11T18:17:12.737Z,91848.67
2018-06-11T18:19:47.615Z,91839.51
2018-06-11T18:22:19.546Z,91850.23
2018-06-11T18:24:47.685Z,91853.33
2018-06-11T18:27:16.218Z,91856.02
2018-06-11T18:29:47.612Z,91858.48
2018-06-11T18:32:16.140Z,91861.25
2018-06-11T18:34:45.906Z,91876.19
2018-06-11T18:37:14.254Z,91878.83
2018-06-11T18:39:43.515Z,91877.63
2018-06-11T18:42:12.107Z,91877.84
2018-06-11T18:44:41.657Z,91872.19
2018-06-11T18:47:09.828Z,91886.94
2018-06-11T18:49:38.492Z,91894.84
2018-06-11T18:52:06.686Z,91898.27
2018-06-11T18:54:35.979Z,91901.09
2018-06-11T18:57:04.932Z,91896.97
2018-06-11T18:59:33.466Z,91895.48
2018-06-11T19:02:07.011Z,91901.83
2018-06-11T19:04:39.619Z,91902.45
2018-06-11T19:07:07.811Z,91909.88
2018-06-11T19:09:36.007Z,91910.97
2018-06-11T19:12:05.709Z,91913.77
2018-06-11T19:14:34.913Z,91911.00
2018-06-11T19:17:03.213Z,91913.34
2018-06-11T19:19:31.574Z,91914.70
2018-06-11T19:22:01.008Z,91915.83
2018-06-11T19:24:29.723Z,91917.89
2018-06-11T19:26:58.134Z,91916.95
2018-06-11T19:29:26.248Z,91921.55
2018-06-11T19:31:55.024Z,91928.30
2018-06-11T19:34:23.233Z,91928.69
2018-06-11T19:36:53.863Z,91935.39
2018-06-11T19:39:22.325Z,91937.45
2018-06-11T19:41:55.458Z,91948.37
2018-06-11T19:44:24.627Z,91943.30
2018-06-11T19:47:00.215Z,91945.41
2018-06-11T19:49:30.064Z,91948.27
2018-06-11T19:51:59.318Z,91949.63
2018-06-11T19:54:27.681Z,91955.83
2018-06-11T19:56:56.186Z,91953.86
2018-06-11T19:59:31.884Z,91952.08
2018-06-11T20:02:08.482Z,91954.55
2018-06-11T20:04:43.229Z,91962.38
2018-06-11T20:07:18.271Z,91960.52
2018-06-11T20:09:54.229Z,91957.98
2018-06-11T20:12:31.801Z,91955.87
2018-06-11T20:15:07.261Z,91956.48
2018-06-11T20:17:41.896Z,91957.84
2018-06-11T20:20:17.448Z,91961.20
2018-06-11T20:22:51.800Z,91957.82
2018-06-11T20:25:27.359Z,91956.47
2018-06-11T20:28:02.401Z,91957.45
2018-06-11T20:30:36.680Z,91961.95
2018-06-11T20:33:11.589Z,91959.57
2018-06-11T20:35:48.607Z,91962.29
2018-06-11T20:38:24.471Z,91960.42
2018-06-11T20:41:02.665Z,91962.63
2018-06-11T20:43:37.348Z,91964.85
2018-06-11T20:46:14.783Z,91969.83
2018-06-11T20:48:51.510Z,91974.00
2018-06-11T20:51:26.588Z,91972.59
2018-06-11T20:54:01.726Z,91965.06
2018-06-11T20:56:35.830Z,91963.51
2018-06-11T20:59:11.008Z,91962.91
2018-06-11T21:01:46.567Z,91955.72
2018-06-11T21:04:20.806Z,91963.11
2018-06-11T21:06:56.337Z,91962.20
2018-06-11T21:09:30.631Z,91959.84
2018-06-11T21:12:05.925Z,91963.75
2018-06-11T21:14:40.841Z,91961.48
2018-06-11T21:17:15.166Z,91961.78
2018-06-11T21:19:49.606Z,91968.06
2018-06-11T21:22:23.856Z,91967.45
2018-06-11T21:24:59.387Z,91961.52
2018-06-11T21:27:33.881Z,91959.22
2018-06-11T21:30:08.756Z,91962.87
2018-06-11T21:32:43.111Z,91967.17
2018-06-11T21:35:17.804Z,91960.78
2018-06-11T21:37:53.757Z,91956.53
2018-06-11T21:40:30.103Z,91957.58
2018-06-11T21:43:04.832Z,91956.59
2018-06-11T21:45:39.049Z,91961.91
2018-06-11T21:48:14.156Z,91952.47
2018-06-11T21:50:48.494Z,91945.52
2018-06-11T21:53:23.222Z,91951.66
2018-06-11T21:55:57.465Z,91957.27
2018-06-11T21:58:32.005Z,91956.48
2018-06-11T22:01:06.696Z,91960.81
2018-06-11T22:03:41.945Z,91955.05
2018-06-11T22:06:16.767Z,91950.06
2018-06-11T22:08:51.052Z,91944.98
2018-06-11T22:11:25.651Z,91939.25
2018-06-11T22:14:01.785Z,91938.19
2018-06-11T22:16:36.353Z,91938.41
2018-06-11T22:19:10.862Z,91941.98
2018-06-11T22:21:45.197Z,91942.88
2018-06-11T22:24:21.286Z,91938.11
2018-06-11T22:26:55.874Z,91937.08
2018-06-11T22:29:32.649Z,91933.02
2018-06-11T22:32:07.711Z,91935.67
2018-06-11T22:34:45.600Z,91934.05
2018-06-11T22:37:20.830Z,91930.73
2018-06-11T22:39:56.234Z,91937.52
2018-06-11T22:42:30.539Z,91935.50
2018-06-11T22:45:07.124Z,91929.11
2018-06-11T22:47:42.203Z,91938.48
2018-06-11T22:50:16.857Z,91936.31
2018-06-11T22:52:51.244Z,91937.78
2018-06-11T22:55:28.361Z,91933.60
2018-06-11T22:58:03.671Z,91936.09
2018-06-11T23:00:38.109Z,91938.41
2018-06-11T23:03:12.274Z,91939.64
2018-06-11T23:05:47.659Z,91940.67
2018-06-11T23:08:21.994Z,91933.47
2018-06-11T23:10:56.952Z,91943.38
2018-06-11T23:13:32.224Z,91940.30
2018-06-11T23:16:08.219Z,91938.65
2018-06-11T23:18:42.983Z,91939.67
2018-06-11T23:21:17.156Z,91944.60
2018-06-11T23:23:51.367Z,91951.20
2018-06-11T23:26:26.074Z,91947.70
2018-06-11T23:29:00.459Z,91950.49
2018-06-11T23:31:34.264Z,91941.94
2018-06-11T23:34:07.745Z,91940.49
2018-06-11T23:36:42.688Z,91938.02
2018-06-11T23:39:16.487Z,91928.42
2018-06-11T23:41:51.122Z,91932.42
2018-06-11T23:44:24.882Z,91932.71
2018-06-11T23:46:58.888Z,91934.94
2018-06-11T23:49:34.394Z,91928.17
2018-06-11T23:52:08.700Z,91924.67
2018-06-11T23:54:42.201Z,91927.73
2018-06-11T23:57:22.431Z,91921.79
2018-06-11T23:59:57.008Z,91922.67
